Time;durP1;ratioP1;P1;durP2;ratioP2;P2;SDS_P1;SDS_P2;PMS_P1;PMS_P2;Temp;Humidity;BMP_temperature;BMP_pressure;BME280_temperature;BME280_humidity;BME280_pressure;Samples;Min_cycle;Max_cycle;Signal;HPM_P1;HPM_P2
2023/11/13 00:04:45;;;;;;;22.40;18.17;;;;;;;;;;10026775;28;20509;-72
2023/11/13 00:09:37;;;;;;;22.90;19.45;;;;;;;;;;10025518;28;20050;-72
2023/11/13 00:14:29;;;;;;;27.52;20.15;;;;;;;;;;10030372;28;20042;-72
2023/11/13 00:19:22;;;;;;;27.55;20.90;;;;;;;;;;10035527;28;20108;-72
2023/11/13 00:24:14;;;;;;;32.63;22.52;;;;;;;;;;10024802;28;20108;-72
2023/11/13 00:29:06;;;;;;;30.40;21.85;;;;;;;;;;10026406;28;20384;-72
2023/11/13 00:33:58;;;;;;;27.98;20.42;;;;;;;;;;10024206;28;20461;-71
2023/11/13 00:38:50;;;;;;;32.78;23.25;;;;;;;;;;10025783;28;20037;-72
2023/11/13 00:43:42;;;;;;;30.52;21.77;;;;;;;;;;10033779;28;20477;-72
2023/11/13 00:48:37;;;;;;;31.67;22.48;;;;;;;;;;10030479;28;20062;-72
2023/11/13 00:53:36;;;;;;;26.17;19.77;;;;;;;;;;10030818;28;20044;-72
2023/11/13 00:58:28;;;;;;;25.85;20.02;;;;;;;;;;10031152;28;20034;-72
2023/11/13 01:03:20;;;;;;;27.17;19.63;;;;;;;;;;10030930;28;20042;-72
2023/11/13 01:08:12;;;;;;;28.50;20.73;;;;;;;;;;10032480;28;20395;-72
2023/11/13 01:13:04;;;;;;;23.70;18.42;;;;;;;;;;10032249;28;20042;-72
2023/11/13 01:17:56;;;;;;;26.30;19.80;;;;;;;;;;10013437;28;20046;-71
2023/11/13 01:22:48;;;;;;;25.27;20.00;;;;;;;;;;10029561;28;20496;-72
2023/11/13 01:27:40;;;;;;;21.95;18.10;;;;;;;;;;10031078;28;20048;-72
2023/11/13 01:32:32;;;;;;;28.05;19.90;;;;;;;;;;10014375;28;20420;-72
2023/11/13 01:37:25;;;;;;;26.98;22.58;;;;;;;;;;10032389;28;20061;-72
2023/11/13 01:42:17;;;;;;;26.48;22.25;;;;;;;;;;10011697;28;20054;-72
2023/11/13 01:47:10;;;;;;;24.35;19.80;;;;;;;;;;10032528;28;20042;-71
2023/11/13 01:52:03;;;;;;;32.10;21.63;;;;;;;;;;10011591;28;20133;-70
2023/11/13 01:56:56;;;;;;;29.88;23.75;;;;;;;;;;10011528;28;20094;-71
2023/11/13 02:01:48;;;;;;;30.38;22.63;;;;;;;;;;10030147;28;20583;-71
2023/11/13 02:06:40;;;;;;;27.95;23.55;;;;;;;;;;10021932;28;20042;-72
2023/11/13 02:11:33;;;;;;;28.05;22.25;;;;;;;;;;10029469;28;20038;-72
2023/11/13 02:16:25;;;;;;;26.05;22.15;;;;;;;;;;10028632;28;20475;-72
2023/11/13 02:21:17;;;;;;;28.45;23.65;;;;;;;;;;10030015;28;20531;-72
2023/11/13 02:26:15;;;;;;;27.48;22.05;;;;;;;;;;10020942;28;20042;-72
2023/11/13 02:31:08;;;;;;;28.42;24.55;;;;;;;;;;10029232;28;20815;-72
2023/11/13 02:36:00;;;;;;;30.65;23.02;;;;;;;;;;10026267;28;20080;-72
2023/11/13 02:40:52;;;;;;;32.22;23.25;;;;;;;;;;10026842;28;20473;-72
2023/11/13 02:45:44;;;;;;;32.40;25.52;;;;;;;;;;10028173;28;20129;-72
2023/11/13 02:50:36;;;;;;;29.08;24.80;;;;;;;;;;10023172;28;20057;-72
2023/11/13 02:55:27;;;;;;;31.10;23.33;;;;;;;;;;10024311;28;20145;-72
2023/11/13 03:00:20;;;;;;;35.33;26.80;;;;;;;;;;10025162;28;20121;-71
2023/11/13 03:05:12;;;;;;;28.73;24.00;;;;;;;;;;10028117;28;20038;-71
2023/11/13 03:10:05;;;;;;;31.85;25.02;;;;;;;;;;10027213;28;20495;-71
2023/11/13 03:14:57;;;;;;;35.92;28.02;;;;;;;;;;10026884;28;20453;-72
2023/11/13 03:19:49;;;;;;;32.88;27.33;;;;;;;;;;10009307;28;20479;-72
2023/11/13 03:24:41;;;;;;;39.50;30.50;;;;;;;;;;10027748;28;20058;-71
2023/11/13 03:29:34;;;;;;;36.53;27.58;;;;;;;;;;10027786;28;20049;-71
2023/11/13 03:34:26;;;;;;;38.67;30.63;;;;;;;;;;10008980;28;20905;-72
2023/11/13 03:39:18;;;;;;;32.95;27.48;;;;;;;;;;10025294;28;20046;-71
2023/11/13 03:44:10;;;;;;;37.42;28.67;;;;;;;;;;10026982;28;20152;-71
2023/11/13 03:49:03;;;;;;;39.85;29.50;;;;;;;;;;10027376;28;20054;-72
2023/11/13 03:53:55;;;;;;;42.22;29.23;;;;;;;;;;10033694;28;20042;-72
2023/11/13 03:58:47;;;;;;;42.78;31.08;;;;;;;;;;10025560;28;20034;-72
2023/11/13 04:03:39;;;;;;;38.50;28.38;;;;;;;;;;10027914;28;20042;-71
2023/11/13 04:08:31;;;;;;;39.50;25.48;;;;;;;;;;10025012;28;20042;-71
2023/11/13 04:13:24;;;;;;;37.55;26.70;;;;;;;;;;10011174;28;20042;-71
2023/11/13 04:18:17;;;;;;;30.65;24.60;;;;;;;;;;10035299;28;20130;-72
2023/11/13 04:23:09;;;;;;;32.13;21.02;;;;;;;;;;10032929;28;20042;-71
2023/11/13 04:28:01;;;;;;;28.58;21.92;;;;;;;;;;10033235;28;20077;-71
2023/11/13 04:32:53;;;;;;;26.88;20.42;;;;;;;;;;10035196;28;20370;-71
2023/11/13 04:37:45;;;;;;;31.08;24.05;;;;;;;;;;10032366;28;20069;-71
2023/11/13 04:42:38;;;;;;;36.80;24.95;;;;;;;;;;10031695;28;20049;-71
2023/11/13 04:47:30;;;;;;;30.98;26.02;;;;;;;;;;10033437;28;20050;-71
2023/11/13 04:52:22;;;;;;;35.80;27.23;;;;;;;;;;10034564;28;20050;-71
2023/11/13 04:57:14;;;;;;;47.88;37.03;;;;;;;;;;10033441;28;20663;-71
2023/11/13 05:02:07;;;;;;;31.67;25.60;;;;;;;;;;10028268;28;20038;-71
2023/11/13 05:06:59;;;;;;;33.72;24.42;;;;;;;;;;10032210;28;20049;-71
2023/11/13 05:11:51;;;;;;;25.13;22.25;;;;;;;;;;10032447;28;20420;-72
2023/11/13 05:16:43;;;;;;;33.05;27.08;;;;;;;;;;10031933;28;20115;-72
2023/11/13 05:21:35;;;;;;;29.42;23.15;;;;;;;;;;10032269;28;20045;-71
2023/11/13 05:26:27;;;;;;;27.52;21.17;;;;;;;;;;10036411;28;20046;-71
2023/11/13 05:31:19;;;;;;;32.83;29.15;;;;;;;;;;10029907;28;20120;-71
2023/11/13 05:36:11;;;;;;;33.15;20.17;;;;;;;;;;10032873;28;20054;-71
2023/11/13 05:41:03;;;;;;;26.63;21.55;;;;;;;;;;10032151;28;20057;-71
2023/11/13 05:45:55;;;;;;;24.20;19.73;;;;;;;;;;10031320;28;20068;-72
2023/11/13 05:50:48;;;;;;;22.75;18.80;;;;;;;;;;10029994;28;20196;-71
2023/11/13 05:55:40;;;;;;;27.15;20.10;;;;;;;;;;10030417;28;20062;-71
2023/11/13 06:00:32;;;;;;;26.27;17.95;;;;;;;;;;10031969;28;20042;-71
2023/11/13 06:05:24;;;;;;;22.88;18.05;;;;;;;;;;10025686;28;20049;-71
2023/11/13 06:10:15;;;;;;;22.70;17.80;;;;;;;;;;10027296;28;20089;-71
2023/11/13 06:15:16;;;;;;;22.17;18.75;;;;;;;;;;10031710;28;20157;-71
2023/11/13 06:20:09;;;;;;;24.52;18.83;;;;;;;;;;10028620;28;20045;-71
2023/11/13 06:25:01;;;;;;;21.80;17.13;;;;;;;;;;10027653;28;20080;-71
2023/11/13 06:29:53;;;;;;;21.45;17.58;;;;;;;;;;10067488;28;20049;-71
2023/11/13 06:34:46;;;;;;;22.13;19.75;;;;;;;;;;10065355;28;20499;-71
2023/11/13 06:39:39;;;;;;;22.23;17.08;;;;;;;;;;10058237;28;20381;-71
2023/11/13 06:44:30;;;;;;;36.72;22.38;;;;;;;;;;10047920;28;20046;-71
2023/11/13 06:49:22;;;;;;;51.58;30.13;;;;;;;;;;10046441;28;20136;-71
2023/11/13 06:54:14;;;;;;;36.55;23.60;;;;;;;;;;10038394;28;20100;-70
2023/11/13 06:59:06;;;;;;;18.33;14.05;;;;;;;;;;10036296;28;20053;-72
2023/11/13 07:03:58;;;;;;;22.60;19.33;;;;;;;;;;10030508;28;20045;-71
2023/11/13 07:08:50;;;;;;;23.05;16.67;;;;;;;;;;10041944;28;20050;-70
2023/11/13 07:13:42;;;;;;;20.10;16.30;;;;;;;;;;10061106;28;20099;-71
2023/11/13 07:18:34;;;;;;;18.67;15.00;;;;;;;;;;10055654;28;20053;-71
2023/11/13 07:23:28;;;;;;;23.00;15.93;;;;;;;;;;10045576;28;20648;-71
2023/11/13 07:28:20;;;;;;;20.30;14.95;;;;;;;;;;10048939;28;20436;-70
2023/11/13 07:33:12;;;;;;;18.33;12.63;;;;;;;;;;10030426;28;20046;-71
2023/11/13 07:38:09;;;;;;;16.50;13.40;;;;;;;;;;10038312;28;20445;-71
2023/11/13 07:43:01;;;;;;;14.20;11.90;;;;;;;;;;10032412;28;20046;-71
2023/11/13 07:47:53;;;;;;;14.88;11.18;;;;;;;;;;10017190;28;20044;-71
2023/11/13 07:52:45;;;;;;;11.73;9.80;;;;;;;;;;10019905;28;20060;-73
2023/11/13 07:57:40;;;;;;;16.00;9.18;;;;;;;;;;10031310;28;20041;-73
2023/11/13 08:02:40;;;;;;;9.68;7.32;;;;;;;;;;10054424;28;20393;-73
2023/11/13 08:07:32;;;;;;;12.90;8.77;;;;;;;;;;10053481;28;20087;-73
2023/11/13 08:12:24;;;;;;;12.98;10.15;;;;;;;;;;10037309;28;20344;-73
2023/11/13 08:17:15;;;;;;;13.82;10.65;;;;;;;;;;10047366;28;20045;-73
2023/11/13 08:22:07;;;;;;;21.38;15.32;;;;;;;;;;10023983;28;20493;-73
2023/11/13 08:26:59;;;;;;;19.63;16.50;;;;;;;;;;10032615;28;20044;-74
2023/11/13 08:31:52;;;;;;;24.17;18.27;;;;;;;;;;10014263;28;20404;-73
2023/11/13 08:36:45;;;;;;;28.58;20.15;;;;;;;;;;10035171;28;20615;-73
2023/11/13 08:41:37;;;;;;;21.95;16.45;;;;;;;;;;10052635;28;20053;-73
2023/11/13 08:46:33;;;;;;;20.60;17.98;;;;;;;;;;10037978;28;20049;-73
2023/11/13 08:51:28;;;;;;;20.10;15.82;;;;;;;;;;10049977;28;20050;-73
2023/11/13 08:56:21;;;;;;;15.57;8.82;;;;;;;;;;10023406;28;20073;-73
2023/11/13 09:01:15;;;;;;;11.85;8.95;;;;;;;;;;10040131;28;20077;-73
2023/11/13 09:06:13;;;;;;;12.68;9.40;;;;;;;;;;10069593;28;20048;-73
2023/11/13 09:11:05;;;;;;;12.13;8.30;;;;;;;;;;10041842;28;20041;-73
2023/11/13 09:15:57;;;;;;;19.52;17.20;;;;;;;;;;10053849;28;20456;-73
2023/11/13 09:20:49;;;;;;;20.92;18.38;;;;;;;;;;10064799;28;20048;-73
2023/11/13 09:25:42;;;;;;;18.50;16.60;;;;;;;;;;10051194;28;20057;-73
2023/11/13 09:30:35;;;;;;;16.40;14.13;;;;;;;;;;10059028;28;20057;-73
2023/11/13 09:35:29;;;;;;;17.23;14.70;;;;;;;;;;10059063;28;20496;-73
2023/11/13 09:40:25;;;;;;;19.95;17.75;;;;;;;;;;10067147;28;20055;-73
2023/11/13 09:45:19;;;;;;;20.85;17.58;;;;;;;;;;10045246;28;20065;-72
2023/11/13 09:50:15;;;;;;;22.73;19.10;;;;;;;;;;10063868;28;20103;-72
2023/11/13 09:55:09;;;;;;;24.15;20.15;;;;;;;;;;10043707;28;20386;-73
2023/11/13 10:00:01;;;;;;;28.02;21.02;;;;;;;;;;10047410;28;20037;-73
2023/11/13 10:05:02;;;;;;;27.13;21.33;;;;;;;;;;10054394;28;20049;-72
2023/11/13 10:10:05;;;;;;;29.38;20.67;;;;;;;;;;10065913;28;20049;-72
2023/11/13 10:15:07;;;;;;;23.73;18.50;;;;;;;;;;10051416;28;20143;-72
2023/11/13 10:19:59;;;;;;;23.33;19.23;;;;;;;;;;10067263;28;20145;-73
2023/11/13 10:24:57;;;;;;;30.30;21.55;;;;;;;;;;10064772;28;20143;-73
2023/11/13 10:30:04;;;;;;;27.17;22.45;;;;;;;;;;10050058;28;20054;-73
2023/11/13 10:34:56;;;;;;;29.60;21.38;;;;;;;;;;10032452;28;20528;-72
2023/11/13 10:39:49;;;;;;;26.63;21.85;;;;;;;;;;10063187;28;20466;-73
2023/11/13 10:44:41;;;;;;;25.27;20.48;;;;;;;;;;10054966;28;20488;-73
2023/11/13 10:49:33;;;;;;;25.02;20.17;;;;;;;;;;10054428;28;20450;-72
2023/11/13 10:54:26;;;;;;;22.02;17.77;;;;;;;;;;10035072;28;20057;-72
2023/11/13 10:59:21;;;;;;;28.63;21.73;;;;;;;;;;10065293;28;20436;-73
2023/11/13 11:04:16;;;;;;;27.77;20.80;;;;;;;;;;10041491;28;20049;-72
2023/11/13 11:09:12;;;;;;;23.17;20.45;;;;;;;;;;10025219;28;20054;-73
2023/11/13 11:14:09;;;;;;;23.30;18.55;;;;;;;;;;10037128;28;20045;-71
2023/11/13 11:19:27;;;;;;;21.13;18.73;;;;;;;;;;10049927;28;20414;-73
2023/11/13 11:24:28;;;;;;;25.90;19.80;;;;;;;;;;10040168;28;20092;-73
2023/11/13 11:29:42;;;;;;;25.95;19.98;;;;;;;;;;10053643;28;20045;-72
2023/11/13 11:34:36;;;;;;;25.15;20.73;;;;;;;;;;10064367;28;20060;-70
2023/11/13 11:39:28;;;;;;;21.27;17.60;;;;;;;;;;10024833;28;20477;-73
2023/11/13 11:44:23;;;;;;;20.30;14.98;;;;;;;;;;10024220;28;20044;-73
2023/11/13 11:49:26;;;;;;;23.85;15.93;;;;;;;;;;10025778;28;20100;-72
2023/11/13 11:54:18;;;;;;;22.52;16.40;;;;;;;;;;10025003;28;20464;-74
2023/11/13 11:59:11;;;;;;;20.35;15.10;;;;;;;;;;10025051;28;20045;-72
2023/11/13 12:04:03;;;;;;;32.08;16.55;;;;;;;;;;10007834;28;20073;-73
2023/11/13 12:08:55;;;;;;;19.20;15.00;;;;;;;;;;10025564;28;20045;-73
2023/11/13 12:13:47;;;;;;;22.05;13.88;;;;;;;;;;10025734;28;20050;-73
2023/11/13 12:18:39;;;;;;;22.42;15.48;;;;;;;;;;10025793;28;20049;-73
2023/11/13 12:23:31;;;;;;;20.83;15.15;;;;;;;;;;10023727;28;20116;-73
2023/11/13 12:28:23;;;;;;;16.70;14.90;;;;;;;;;;10024964;28;20095;-73
2023/11/13 12:33:15;;;;;;;20.83;15.20;;;;;;;;;;10023873;28;20088;-73
2023/11/13 12:38:08;;;;;;;21.77;15.77;;;;;;;;;;10031279;28;20408;-72
2023/11/13 12:43:00;;;;;;;15.07;12.18;;;;;;;;;;10040721;28;20065;-73
2023/11/13 12:47:55;;;;;;;18.30;13.73;;;;;;;;;;10038988;28;20052;-72
2023/11/13 12:52:50;;;;;;;16.25;12.15;;;;;;;;;;10031915;28;20388;-73
2023/11/13 12:57:43;;;;;;;13.63;9.63;;;;;;;;;;10029658;28;20050;-73
2023/11/13 13:02:35;;;;;;;13.23;10.43;;;;;;;;;;10033115;28;20488;-72
2023/11/13 13:07:28;;;;;;;12.23;9.90;;;;;;;;;;10037592;28;20871;-73
2023/11/13 13:12:19;;;;;;;16.85;12.43;;;;;;;;;;10030247;28;20045;-73
2023/11/13 13:17:15;;;;;;;14.77;10.63;;;;;;;;;;10036849;28;20038;-73
2023/11/13 13:22:07;;;;;;;14.95;11.73;;;;;;;;;;10029109;28;20073;-72
2023/11/13 13:27:04;;;;;;;24.05;12.02;;;;;;;;;;10029359;28;20044;-72
2023/11/13 13:31:56;;;;;;;17.15;11.95;;;;;;;;;;10021614;28;20050;-72
2023/11/13 13:36:48;;;;;;;15.48;11.85;;;;;;;;;;10018389;28;20042;-72
2023/11/13 13:41:43;;;;;;;18.58;12.93;;;;;;;;;;10023534;28;20052;-72
2023/11/13 13:46:36;;;;;;;14.27;12.63;;;;;;;;;;10029843;28;20077;-72
2023/11/13 13:51:28;;;;;;;14.50;11.85;;;;;;;;;;10045961;28;20056;-72
2023/11/13 13:56:22;;;;;;;13.38;11.25;;;;;;;;;;10062509;28;20121;-72
2023/11/13 14:01:13;;;;;;;16.85;12.50;;;;;;;;;;10027327;28;20164;-72
2023/11/13 14:06:11;;;;;;;12.48;10.23;;;;;;;;;;10025305;28;20046;-72
2023/11/13 14:11:05;;;;;;;13.02;11.70;;;;;;;;;;10024667;28;20142;-72
2023/11/13 14:15:57;;;;;;;14.90;11.40;;;;;;;;;;10026153;28;20050;-72
2023/11/13 14:20:59;;;;;;;13.30;10.68;;;;;;;;;;10026339;28;20044;-72
2023/11/13 14:25:54;;;;;;;12.38;10.73;;;;;;;;;;10020994;28;20088;-72
2023/11/13 14:30:47;;;;;;;19.50;11.35;;;;;;;;;;10019826;28;20050;-72
2023/11/13 14:35:39;;;;;;;14.15;12.05;;;;;;;;;;10024433;28;20424;-74
2023/11/13 14:40:31;;;;;;;15.73;11.95;;;;;;;;;;10020749;28;20041;-74
2023/11/13 14:45:24;;;;;;;19.75;12.43;;;;;;;;;;10014549;28;20045;-74
2023/11/13 14:50:18;;;;;;;19.08;12.73;;;;;;;;;;10016970;28;20402;-75
2023/11/13 14:55:14;;;;;;;16.88;12.45;;;;;;;;;;10021203;28;20337;-75
2023/11/13 15:00:07;;;;;;;21.55;13.60;;;;;;;;;;10022159;28;20057;-74
2023/11/13 15:05:04;;;;;;;17.60;13.60;;;;;;;;;;10029293;28;20443;-74
2023/11/13 15:09:59;;;;;;;22.40;14.43;;;;;;;;;;10022570;28;20069;-74
2023/11/13 15:14:50;;;;;;;17.70;12.95;;;;;;;;;;10023305;28;20464;-74
2023/11/13 15:19:42;;;;;;;18.27;14.32;;;;;;;;;;10025395;28;20046;-74
2023/11/13 15:24:34;;;;;;;18.45;15.23;;;;;;;;;;10023770;28;20060;-74
2023/11/13 15:29:26;;;;;;;27.50;18.67;;;;;;;;;;10024682;28;20037;-75
2023/11/13 15:34:18;;;;;;;22.73;18.95;;;;;;;;;;10023543;28;20048;-74
2023/11/13 15:39:19;;;;;;;23.45;19.52;;;;;;;;;;10015250;28;20485;-74
2023/11/13 15:44:12;;;;;;;38.58;30.77;;;;;;;;;;10021855;28;20389;-74
2023/11/13 15:49:05;;;;;;;35.17;29.38;;;;;;;;;;10022185;28;20054;-73
2023/11/13 15:53:56;;;;;;;27.98;23.70;;;;;;;;;;10029570;28;20070;-75
2023/11/13 15:58:48;;;;;;;25.83;19.63;;;;;;;;;;10023691;28;20041;-73
2023/11/13 16:03:41;;;;;;;23.80;18.77;;;;;;;;;;10024226;28;20049;-73
2023/11/13 16:08:36;;;;;;;24.98;18.13;;;;;;;;;;10028596;28;20057;-75
2023/11/13 16:13:29;;;;;;;28.98;18.85;;;;;;;;;;10033759;28;20096;-75
2023/11/13 16:18:21;;;;;;;23.27;18.85;;;;;;;;;;10031673;28;20050;-73
2023/11/13 16:23:13;;;;;;;28.35;22.35;;;;;;;;;;10030240;28;20129;-74
2023/11/13 16:28:05;;;;;;;30.13;24.08;;;;;;;;;;10031185;28;20116;-73
2023/11/13 16:33:00;;;;;;;23.98;20.20;;;;;;;;;;10030778;28;20046;-73
2023/11/13 16:37:53;;;;;;;31.00;26.52;;;;;;;;;;10029336;28;20140;-74
2023/11/13 16:42:44;;;;;;;259.98;185.68;;;;;;;;;;10029784;28;20056;-74
2023/11/13 16:47:36;;;;;;;62.25;36.90;;;;;;;;;;10028630;28;20042;-74
2023/11/13 16:52:29;;;;;;;42.92;35.60;;;;;;;;;;10028558;28;20054;-73
2023/11/13 16:57:21;;;;;;;47.88;34.60;;;;;;;;;;10036861;28;20468;-71
2023/11/13 17:02:13;;;;;;;33.67;26.52;;;;;;;;;;10033084;28;20480;-72
2023/11/13 17:07:05;;;;;;;49.85;40.22;;;;;;;;;;10030585;28;20085;-72
2023/11/13 17:11:59;;;;;;;35.70;28.60;;;;;;;;;;10029148;28;20042;-72
2023/11/13 17:16:53;;;;;;;106.45;90.22;;;;;;;;;;10031119;28;20089;-73
2023/11/13 17:21:46;;;;;;;46.20;35.50;;;;;;;;;;10047418;28;20515;-72
2023/11/13 17:26:37;;;;;;;83.43;66.85;;;;;;;;;;10031079;28;20066;-72
2023/11/13 17:31:30;;;;;;;41.25;33.35;;;;;;;;;;10012974;28;20046;-72
2023/11/13 17:36:22;;;;;;;40.72;31.40;;;;;;;;;;10026201;28;20049;-73
2023/11/13 17:41:14;;;;;;;46.83;35.97;;;;;;;;;;10059881;28;20033;-72
2023/11/13 17:46:08;;;;;;;46.25;35.85;;;;;;;;;;10059520;28;20069;-72
2023/11/13 17:51:00;;;;;;;45.40;38.17;;;;;;;;;;10036806;28;20448;-72
2023/11/13 17:55:52;;;;;;;51.08;43.10;;;;;;;;;;10040227;28;20129;-72
2023/11/13 18:00:44;;;;;;;60.38;48.20;;;;;;;;;;10021056;28;20414;-72
2023/11/13 18:05:39;;;;;;;65.72;52.20;;;;;;;;;;10020254;28;20417;-72
2023/11/13 18:10:31;;;;;;;90.70;65.82;;;;;;;;;;10024932;28;20112;-72
2023/11/13 18:15:24;;;;;;;67.30;48.53;;;;;;;;;;10035106;28;20049;-72
2023/11/13 18:20:18;;;;;;;161.65;119.05;;;;;;;;;;10047286;28;20445;-72
2023/11/13 18:25:13;;;;;;;65.10;53.30;;;;;;;;;;10043476;28;20530;-72
2023/11/13 18:30:06;;;;;;;60.25;41.42;;;;;;;;;;10040171;28;20038;-72
2023/11/13 18:34:58;;;;;;;46.30;40.50;;;;;;;;;;10049375;28;20049;-73
2023/11/13 18:39:50;;;;;;;39.30;32.65;;;;;;;;;;10052052;28;20046;-72
2023/11/13 18:44:42;;;;;;;59.55;47.65;;;;;;;;;;10066792;28;20057;-72
2023/11/13 18:49:34;;;;;;;45.88;36.63;;;;;;;;;;10065588;28;20041;-72
2023/11/13 18:54:26;;;;;;;56.95;46.67;;;;;;;;;;10067091;28;20063;-72
2023/11/13 18:59:18;;;;;;;51.83;43.05;;;;;;;;;;10057317;28;20042;-72
2023/11/13 19:04:10;;;;;;;44.05;35.20;;;;;;;;;;10041085;28;20243;-72
2023/11/13 19:09:02;;;;;;;44.60;35.08;;;;;;;;;;10024498;28;20417;-72
2023/11/13 19:13:54;;;;;;;51.13;38.00;;;;;;;;;;10025530;28;20046;-72
2023/11/13 19:18:47;;;;;;;35.03;27.10;;;;;;;;;;10023726;28;20108;-72
2023/11/13 19:23:39;;;;;;;41.47;33.70;;;;;;;;;;10030642;28;20104;-72
2023/11/13 19:28:31;;;;;;;44.42;37.42;;;;;;;;;;10026307;28;20038;-73
2023/11/13 19:33:23;;;;;;;55.55;42.30;;;;;;;;;;10031921;28;20045;-72
2023/11/13 19:38:15;;;;;;;52.25;40.90;;;;;;;;;;10027529;28;20049;-72
2023/11/13 19:43:07;;;;;;;48.80;42.67;;;;;;;;;;10028073;28;20405;-72
2023/11/13 19:47:59;;;;;;;29.55;25.90;;;;;;;;;;10022583;28;20104;-74
2023/11/13 19:52:51;;;;;;;40.63;31.85;;;;;;;;;;10028238;28;20111;-73
2023/11/13 19:57:43;;;;;;;23.40;18.27;;;;;;;;;;10029003;28;20046;-72
2023/11/13 20:02:39;;;;;;;16.38;14.20;;;;;;;;;;10025868;28;20042;-71
2023/11/13 20:07:31;;;;;;;19.10;12.32;;;;;;;;;;10025451;28;20136;-71
2023/11/13 20:12:23;;;;;;;37.50;30.83;;;;;;;;;;10026130;28;20058;-72
2023/11/13 20:17:15;;;;;;;43.25;35.42;;;;;;;;;;10065066;28;20049;-73
2023/11/13 20:22:07;;;;;;;39.97;32.78;;;;;;;;;;10048241;28;20050;-72
2023/11/13 20:26:59;;;;;;;36.83;30.05;;;;;;;;;;10038097;28;20124;-74
2023/11/13 20:31:51;;;;;;;38.80;29.58;;;;;;;;;;10055417;28;20124;-74
2023/11/13 20:36:42;;;;;;;43.10;35.72;;;;;;;;;;10041152;28;20046;-74
2023/11/13 20:41:35;;;;;;;42.78;32.28;;;;;;;;;;10031220;28;20380;-74
2023/11/13 20:46:27;;;;;;;39.38;32.55;;;;;;;;;;10053918;28;20037;-73
2023/11/13 20:51:19;;;;;;;36.75;30.27;;;;;;;;;;10040050;28;20148;-73
2023/11/13 20:56:12;;;;;;;32.55;25.08;;;;;;;;;;10049091;28;20049;-73
2023/11/13 21:01:05;;;;;;;33.63;27.80;;;;;;;;;;10068975;28;20049;-73
2023/11/13 21:05:56;;;;;;;24.50;18.27;;;;;;;;;;10062149;28;20089;-73
2023/11/13 21:10:58;;;;;;;31.80;27.33;;;;;;;;;;10068243;28;20397;-73
2023/11/13 21:15:51;;;;;;;26.42;20.88;;;;;;;;;;10069815;28;20041;-72
2023/11/13 21:20:43;;;;;;;19.60;17.08;;;;;;;;;;10053752;28;20487;-73
2023/11/13 21:25:38;;;;;;;25.00;21.67;;;;;;;;;;10064332;28;20053;-72
2023/11/13 21:30:29;;;;;;;28.33;24.83;;;;;;;;;;10065609;28;20049;-72
2023/11/13 21:35:22;;;;;;;31.13;26.13;;;;;;;;;;10060323;28;20164;-72
2023/11/13 21:40:14;;;;;;;27.65;22.85;;;;;;;;;;10021095;28;20037;-72
2023/11/13 21:45:07;;;;;;;30.38;23.35;;;;;;;;;;10030409;28;20045;-72
2023/11/13 21:49:59;;;;;;;26.02;22.88;;;;;;;;;;10042042;28;20065;-73
2023/11/13 21:54:51;;;;;;;23.88;19.63;;;;;;;;;;10062537;28;20044;-72
2023/11/13 21:59:44;;;;;;;28.88;24.00;;;;;;;;;;10059233;28;20045;-72
2023/11/13 22:04:36;;;;;;;28.10;22.05;;;;;;;;;;10042159;28;20085;-72
2023/11/13 22:09:34;;;;;;;25.00;20.77;;;;;;;;;;10022735;28;20497;-73
2023/11/13 22:14:26;;;;;;;31.30;26.08;;;;;;;;;;10022484;28;20061;-72
2023/11/13 22:19:19;;;;;;;35.25;27.77;;;;;;;;;;10021327;28;20465;-74
2023/11/13 22:24:11;;;;;;;42.55;35.10;;;;;;;;;;10018485;28;20071;-74
2023/11/13 22:29:03;;;;;;;23.35;19.92;;;;;;;;;;10020543;28;20057;-74
2023/11/13 22:33:55;;;;;;;28.33;19.88;;;;;;;;;;10020029;28;20454;-74
2023/11/13 22:38:47;;;;;;;21.58;17.90;;;;;;;;;;10021958;28;20485;-74
2023/11/13 22:43:38;;;;;;;22.27;19.13;;;;;;;;;;10023172;28;20698;-71
2023/11/13 22:48:30;;;;;;;12.00;10.30;;;;;;;;;;10022520;28;20065;-74
2023/11/13 22:53:22;;;;;;;13.15;9.68;;;;;;;;;;10024724;28;20465;-73
2023/11/13 22:58:14;;;;;;;11.48;8.30;;;;;;;;;;10025150;28;20042;-73
2023/11/13 23:03:12;;;;;;;12.75;9.00;;;;;;;;;;10008145;28;20362;-74
2023/11/13 23:08:05;;;;;;;9.73;7.68;;;;;;;;;;10023363;28;20037;-74
2023/11/13 23:12:58;;;;;;;7.68;6.47;;;;;;;;;;10024199;28;20050;-74
2023/11/13 23:17:50;;;;;;;7.85;7.03;;;;;;;;;;10024152;28;20057;-74
2023/11/13 23:22:42;;;;;;;16.70;12.52;;;;;;;;;;10024413;28;20108;-74
2023/11/13 23:27:35;;;;;;;19.90;15.52;;;;;;;;;;10023926;28;20053;-74
2023/11/13 23:32:27;;;;;;;25.67;21.10;;;;;;;;;;10025957;28;20041;-73
2023/11/13 23:37:19;;;;;;;21.60;17.00;;;;;;;;;;10018937;28;20420;-74
2023/11/13 23:42:11;;;;;;;25.15;20.17;;;;;;;;;;10020717;28;20148;-74
2023/11/13 23:47:03;;;;;;;31.85;20.63;;;;;;;;;;10020625;28;20500;-74
2023/11/13 23:51:55;;;;;;;24.83;18.50;;;;;;;;;;10022219;28;20061;-74
2023/11/13 23:56:47;;;;;;;20.83;18.60;;;;;;;;;;10047924;28;20069;-74
